sensor_id;sensor_type;location;lat;lon;timestamp;pressure;altitude;pressure_sealevel;temperature;humidity
44198;BME280;30157;55.512;37.764;2022-12-18T00:02:01;99365.72;;;-5.99;96.37
44198;BME280;30157;55.512;37.764;2022-12-18T00:04:27;99354.41;;;-6.06;96.39
44198;BME280;30157;55.512;37.764;2022-12-18T00:06:53;99379.22;;;-5.82;97.06
44198;BME280;30157;55.512;37.764;2022-12-18T00:09:19;99352.22;;;-6.00;96.88
44198;BME280;30157;55.512;37.764;2022-12-18T00:11:45;99385.16;;;-5.82;96.80
44198;BME280;30157;55.512;37.764;2022-12-18T00:14:12;99373.69;;;-5.75;96.83
44198;BME280;30157;55.512;37.764;2022-12-18T00:16:38;99368.56;;;-5.77;96.95
44198;BME280;30157;55.512;37.764;2022-12-18T00:19:04;99345.97;;;-5.90;96.70
44198;BME280;30157;55.512;37.764;2022-12-18T00:21:31;99332.63;;;-6.04;96.52
44198;BME280;30157;55.512;37.764;2022-12-18T00:23:58;99357.59;;;-5.77;96.47
44198;BME280;30157;55.512;37.764;2022-12-18T00:26:30;99322.19;;;-5.94;96.13
44198;BME280;30157;55.512;37.764;2022-12-18T00:29:07;99360.22;;;-5.76;96.42
44198;BME280;30157;55.512;37.764;2022-12-18T00:31:34;99356.72;;;-5.78;96.14
44198;BME280;30157;55.512;37.764;2022-12-18T00:34:00;99353.25;;;-5.80;96.45
44198;BME280;30157;55.512;37.764;2022-12-18T00:36:29;99338.78;;;-5.82;96.35
44198;BME280;30157;55.512;37.764;2022-12-18T00:38:56;99331.56;;;-5.91;96.54
44198;BME280;30157;55.512;37.764;2022-12-18T00:41:23;99336.97;;;-5.85;96.69
44198;BME280;30157;55.512;37.764;2022-12-18T00:44:11;99334.59;;;-5.82;96.47
44198;BME280;30157;55.512;37.764;2022-12-18T00:46:37;99338.09;;;-5.80;96.64
44198;BME280;30157;55.512;37.764;2022-12-18T00:49:03;99305.59;;;-5.88;96.26
44198;BME280;30157;55.512;37.764;2022-12-18T00:51:29;99315.25;;;-5.81;95.81
44198;BME280;30157;55.512;37.764;2022-12-18T00:53:55;99320.38;;;-5.80;96.33
44198;BME280;30157;55.512;37.764;2022-12-18T00:56:21;99278.59;;;-6.06;95.85
44198;BME280;30157;55.512;37.764;2022-12-18T00:58:47;99304.19;;;-5.83;95.97
44198;BME280;30157;55.512;37.764;2022-12-18T01:01:13;99301.34;;;-5.89;96.21
44198;BME280;30157;55.512;37.764;2022-12-18T01:03:39;99311.06;;;-5.81;96.33
44198;BME280;30157;55.512;37.764;2022-12-18T01:06:10;99306.06;;;-5.79;95.84
44198;BME280;30157;55.512;37.764;2022-12-18T01:08:37;99281.34;;;-5.85;96.26
44198;BME280;30157;55.512;37.764;2022-12-18T01:11:08;99295.88;;;-5.81;95.87
44198;BME280;30157;55.512;37.764;2022-12-18T01:13:34;99277.88;;;-5.87;96.15
44198;BME280;30157;55.512;37.764;2022-12-18T01:16:00;99300.09;;;-5.81;95.68
44198;BME280;30157;55.512;37.764;2022-12-18T01:18:26;99243.78;;;-6.12;95.71
44198;BME280;30157;55.512;37.764;2022-12-18T01:20:52;99279.06;;;-5.80;95.66
44198;BME280;30157;55.512;37.764;2022-12-18T01:23:17;99283.41;;;-5.78;95.11
44198;BME280;30157;55.512;37.764;2022-12-18T01:25:43;99273.91;;;-5.82;94.88
44198;BME280;30157;55.512;37.764;2022-12-18T01:28:09;99270.38;;;-5.85;95.57
44198;BME280;30157;55.512;37.764;2022-12-18T01:30:34;99268.72;;;-5.85;95.53
44198;BME280;30157;55.512;37.764;2022-12-18T01:33:00;99273.06;;;-5.82;95.61
44198;BME280;30157;55.512;37.764;2022-12-18T01:35:26;99267.94;;;-5.84;95.28
44198;BME280;30157;55.512;37.764;2022-12-18T01:37:56;99270.47;;;-5.84;95.08
44198;BME280;30157;55.512;37.764;2022-12-18T01:40:22;99274.63;;;-5.84;95.28
44198;BME280;30157;55.512;37.764;2022-12-18T01:42:54;99263.34;;;-5.91;95.71
44198;BME280;30157;55.512;37.764;2022-12-18T01:45:27;99161.50;;;-6.56;95.57
44198;BME280;30157;55.512;37.764;2022-12-18T01:47:56;99256.56;;;-5.92;95.54
44198;BME280;30157;55.512;37.764;2022-12-18T01:50:40;99200.28;;;-6.22;95.76
44198;BME280;30157;55.512;37.764;2022-12-18T01:53:13;99206.38;;;-6.19;95.53
44198;BME280;30157;55.512;37.764;2022-12-18T01:55:43;99264.44;;;-5.86;95.14
44198;BME280;30157;55.512;37.764;2022-12-18T01:58:10;99270.28;;;-5.87;95.46
44198;BME280;30157;55.512;37.764;2022-12-18T02:00:36;99255.84;;;-5.89;95.63
44198;BME280;30157;55.512;37.764;2022-12-18T02:03:02;99209.13;;;-6.14;95.75
44198;BME280;30157;55.512;37.764;2022-12-18T02:08:27;99239.94;;;-5.87;95.69
44198;BME280;30157;55.512;37.764;2022-12-18T02:11:30;99233.44;;;-6.00;95.47
44198;BME280;30157;55.512;37.764;2022-12-18T02:14:28;99249.19;;;-5.87;95.06
44198;BME280;30157;55.512;37.764;2022-12-18T02:17:21;99246.59;;;-5.89;95.33
44198;BME280;30157;55.512;37.764;2022-12-18T02:20:41;99235.38;;;-5.94;95.21
44198;BME280;30157;55.512;37.764;2022-12-18T02:28:28;99248.41;;;-5.86;95.56
44198;BME280;30157;55.512;37.764;2022-12-18T02:31:01;99254.50;;;-5.83;95.19
44198;BME280;30157;55.512;37.764;2022-12-18T02:33:29;99239.81;;;-5.90;95.17
44198;BME280;30157;55.512;37.764;2022-12-18T02:35:57;99255.03;;;-5.88;95.34
44198;BME280;30157;55.512;37.764;2022-12-18T02:38:29;99204.47;;;-6.23;95.52
44198;BME280;30157;55.512;37.764;2022-12-18T02:41:02;99256.63;;;-5.91;95.31
44198;BME280;30157;55.512;37.764;2022-12-18T02:43:29;99253.22;;;-5.91;95.80
44198;BME280;30157;55.512;37.764;2022-12-18T02:45:58;99208.00;;;-6.19;95.85
44198;BME280;30157;55.512;37.764;2022-12-18T02:48:33;99264.28;;;-5.89;95.85
44198;BME280;30157;55.512;37.764;2022-12-18T02:53:53;99227.75;;;-6.12;95.53
44198;BME280;30157;55.512;37.764;2022-12-18T02:56:29;99250.06;;;-5.87;95.66
44198;BME280;30157;55.512;37.764;2022-12-18T02:59:07;99254.97;;;-5.90;95.45
44198;BME280;30157;55.512;37.764;2022-12-18T03:01:51;99255.03;;;-5.88;95.39
44198;BME280;30157;55.512;37.764;2022-12-18T03:04:26;99257.66;;;-5.87;95.70
44198;BME280;30157;55.512;37.764;2022-12-18T03:06:57;99265.22;;;-5.87;95.75
44198;BME280;30157;55.512;37.764;2022-12-18T03:09:33;99246.78;;;-6.02;96.03
44198;BME280;30157;55.512;37.764;2022-12-18T03:17:25;99242.81;;;-5.97;95.84
44198;BME280;30157;55.512;37.764;2022-12-18T03:19:54;99246.38;;;-5.94;95.90
44198;BME280;30157;55.512;37.764;2022-12-18T03:22:23;99255.53;;;-5.96;95.80
44198;BME280;30157;55.512;37.764;2022-12-18T03:24:54;99230.91;;;-6.00;95.62
44198;BME280;30157;55.512;37.764;2022-12-18T03:27:24;99241.47;;;-5.91;95.34
44198;BME280;30157;55.512;37.764;2022-12-18T03:30:03;99245.56;;;-5.93;95.58
44198;BME280;30157;55.512;37.764;2022-12-18T03:32:58;99269.03;;;-5.95;95.67
44198;BME280;30157;55.512;37.764;2022-12-18T03:35:34;99246.72;;;-6.04;95.11
44198;BME280;30157;55.512;37.764;2022-12-18T03:38:03;99231.22;;;-6.10;94.52
44198;BME280;30157;55.512;37.764;2022-12-18T03:43:11;99260.28;;;-6.02;94.65
44198;BME280;30157;55.512;37.764;2022-12-18T03:45:53;99224.34;;;-6.29;94.64
44198;BME280;30157;55.512;37.764;2022-12-18T03:48:31;99263.28;;;-6.09;94.30
44198;BME280;30157;55.512;37.764;2022-12-18T03:51:17;99217.25;;;-6.36;93.84
44198;BME280;30157;55.512;37.764;2022-12-18T03:56:22;99256.50;;;-6.10;94.37
44198;BME280;30157;55.512;37.764;2022-12-18T03:58:52;99239.13;;;-6.20;93.91
44198;BME280;30157;55.512;37.764;2022-12-18T04:01:30;99236.47;;;-6.38;93.87
44198;BME280;30157;55.512;37.764;2022-12-18T04:04:00;99273.41;;;-6.09;94.03
44198;BME280;30157;55.512;37.764;2022-12-18T04:06:29;99256.41;;;-6.12;94.09
44198;BME280;30157;55.512;37.764;2022-12-18T04:08:57;99229.06;;;-6.35;94.23
44198;BME280;30157;55.512;37.764;2022-12-18T04:11:25;99275.69;;;-6.14;93.43
44198;BME280;30157;55.512;37.764;2022-12-18T04:13:56;99154.31;;;-6.96;93.48
44198;BME280;30157;55.512;37.764;2022-12-18T04:16:24;99297.38;;;-6.17;93.65
44198;BME280;30157;55.512;37.764;2022-12-18T04:18:53;99310.31;;;-6.11;93.34
44198;BME280;30157;55.512;37.764;2022-12-18T04:21:21;99297.31;;;-6.19;93.56
44198;BME280;30157;55.512;37.764;2022-12-18T04:23:49;99309.56;;;-6.10;93.48
44198;BME280;30157;55.512;37.764;2022-12-18T04:26:16;99309.88;;;-6.20;93.52
44198;BME280;30157;55.512;37.764;2022-12-18T04:29:01;99328.91;;;-6.11;93.13
44198;BME280;30157;55.512;37.764;2022-12-18T04:31:28;99332.28;;;-6.10;93.24
44198;BME280;30157;55.512;37.764;2022-12-18T04:33:53;99307.69;;;-6.29;92.95
44198;BME280;30157;55.512;37.764;2022-12-18T04:36:19;99334.75;;;-6.12;93.01
44198;BME280;30157;55.512;37.764;2022-12-18T04:38:46;99343.91;;;-6.14;93.17
44198;BME280;30157;55.512;37.764;2022-12-18T04:41:14;99345.81;;;-6.10;92.62
44198;BME280;30157;55.512;37.764;2022-12-18T04:43:42;99292.50;;;-6.46;92.53
44198;BME280;30157;55.512;37.764;2022-12-18T04:46:08;99340.81;;;-6.25;92.74
44198;BME280;30157;55.512;37.764;2022-12-18T04:48:34;99350.38;;;-6.19;92.63
44198;BME280;30157;55.512;37.764;2022-12-18T04:51:02;99348.63;;;-6.20;93.25
44198;BME280;30157;55.512;37.764;2022-12-18T04:53:27;99348.19;;;-6.28;93.26
44198;BME280;30157;55.512;37.764;2022-12-18T04:56:08;99375.72;;;-6.17;93.50
44198;BME280;30157;55.512;37.764;2022-12-18T04:58:34;99384.34;;;-6.14;92.20
44198;BME280;30157;55.512;37.764;2022-12-18T05:01:00;99385.81;;;-6.17;92.11
44198;BME280;30157;55.512;37.764;2022-12-18T05:03:26;99373.09;;;-6.19;92.52
44198;BME280;30157;55.512;37.764;2022-12-18T05:05:52;99381.47;;;-6.20;92.50
44198;BME280;30157;55.512;37.764;2022-12-18T05:08:18;99268.44;;;-6.85;92.38
44198;BME280;30157;55.512;37.764;2022-12-18T05:10:44;99383.13;;;-6.20;92.30
44198;BME280;30157;55.512;37.764;2022-12-18T05:13:10;99366.50;;;-6.32;92.54
44198;BME280;30157;55.512;37.764;2022-12-18T05:15:36;99378.16;;;-6.19;92.66
44198;BME280;30157;55.512;37.764;2022-12-18T05:18:02;99334.47;;;-6.48;92.60
44198;BME280;30157;55.512;37.764;2022-12-18T05:20:29;99394.88;;;-6.21;92.15
44198;BME280;30157;55.512;37.764;2022-12-18T05:22:55;99346.69;;;-6.55;92.31
44198;BME280;30157;55.512;37.764;2022-12-18T05:25:24;99391.91;;;-6.29;91.90
44198;BME280;30157;55.512;37.764;2022-12-18T05:27:50;99358.00;;;-6.64;92.14
44198;BME280;30157;55.512;37.764;2022-12-18T05:30:16;99416.16;;;-6.32;92.42
44198;BME280;30157;55.512;37.764;2022-12-18T05:32:42;99345.13;;;-6.68;92.09
44198;BME280;30157;55.512;37.764;2022-12-18T05:35:09;99304.06;;;-6.96;92.31
44198;BME280;30157;55.512;37.764;2022-12-18T05:37:35;99435.59;;;-6.31;92.34
44198;BME280;30157;55.512;37.764;2022-12-18T05:40:05;99438.81;;;-6.34;92.41
44198;BME280;30157;55.512;37.764;2022-12-18T05:42:31;99443.31;;;-6.28;92.38
44198;BME280;30157;55.512;37.764;2022-12-18T05:44:56;99420.00;;;-6.39;92.40
44198;BME280;30157;55.512;37.764;2022-12-18T05:47:22;99416.84;;;-6.35;92.14
44198;BME280;30157;55.512;37.764;2022-12-18T05:49:48;99421.75;;;-6.38;92.37
44198;BME280;30157;55.512;37.764;2022-12-18T05:52:14;99431.31;;;-6.32;91.89
44198;BME280;30157;55.512;37.764;2022-12-18T05:54:39;99418.84;;;-6.44;92.08
44198;BME280;30157;55.512;37.764;2022-12-18T05:57:05;99462.56;;;-6.30;91.43
44198;BME280;30157;55.512;37.764;2022-12-18T05:59:34;99454.97;;;-6.30;91.60
44198;BME280;30157;55.512;37.764;2022-12-18T06:01:59;99433.03;;;-6.46;91.01
44198;BME280;30157;55.512;37.764;2022-12-18T06:04:27;99431.81;;;-6.53;91.57
44198;BME280;30157;55.512;37.764;2022-12-18T06:06:54;99472.88;;;-6.27;91.98
44198;BME280;30157;55.512;37.764;2022-12-18T06:09:19;99478.00;;;-6.26;91.74
44198;BME280;30157;55.512;37.764;2022-12-18T06:11:48;99472.06;;;-6.26;91.90
44198;BME280;30157;55.512;37.764;2022-12-18T06:14:13;99465.63;;;-6.36;91.53
44198;BME280;30157;55.512;37.764;2022-12-18T06:16:42;99458.13;;;-6.34;91.65
44198;BME280;30157;55.512;37.764;2022-12-18T06:19:14;99480.59;;;-6.24;91.22
44198;BME280;30157;55.512;37.764;2022-12-18T06:21:40;99492.25;;;-6.26;91.34
44198;BME280;30157;55.512;37.764;2022-12-18T06:24:06;99453.59;;;-6.55;90.79
44198;BME280;30157;55.512;37.764;2022-12-18T06:26:32;99500.38;;;-6.32;91.11
44198;BME280;30157;55.512;37.764;2022-12-18T06:28:58;99516.59;;;-6.28;91.17
44198;BME280;30157;55.512;37.764;2022-12-18T06:31:25;99506.19;;;-6.33;91.74
44198;BME280;30157;55.512;37.764;2022-12-18T06:33:51;99523.47;;;-6.26;91.78
44198;BME280;30157;55.512;37.764;2022-12-18T06:36:16;99521.19;;;-6.21;91.83
44198;BME280;30157;55.512;37.764;2022-12-18T06:38:43;99491.84;;;-6.49;92.15
44198;BME280;30157;55.512;37.764;2022-12-18T06:41:15;99533.50;;;-6.27;92.48
44198;BME280;30157;55.512;37.764;2022-12-18T06:43:41;99508.47;;;-6.52;92.02
44198;BME280;30157;55.512;37.764;2022-12-18T06:46:08;99571.91;;;-6.18;91.45
44198;BME280;30157;55.512;37.764;2022-12-18T06:48:34;99571.72;;;-6.21;91.74
44198;BME280;30157;55.512;37.764;2022-12-18T06:51:00;99582.13;;;-6.16;92.00
44198;BME280;30157;55.512;37.764;2022-12-18T06:53:26;99581.22;;;-6.17;91.80
44198;BME280;30157;55.512;37.764;2022-12-18T06:56:07;99570.56;;;-6.26;91.26
44198;BME280;30157;55.512;37.764;2022-12-18T06:58:33;99583.06;;;-6.14;91.54
44198;BME280;30157;55.512;37.764;2022-12-18T07:01:03;99592.31;;;-6.15;92.08
44198;BME280;30157;55.512;37.764;2022-12-18T07:03:29;99574.53;;;-6.16;92.06
44198;BME280;30157;55.512;37.764;2022-12-18T07:05:58;99566.50;;;-6.24;92.10
44198;BME280;30157;55.512;37.764;2022-12-18T07:08:24;99594.56;;;-6.04;91.79
44198;BME280;30157;55.512;37.764;2022-12-18T07:10:50;99600.50;;;-6.04;92.14
44198;BME280;30157;55.512;37.764;2022-12-18T07:13:16;99546.53;;;-6.34;91.55
44198;BME280;30157;55.512;37.764;2022-12-18T07:15:43;99555.09;;;-6.32;92.17
44198;BME280;30157;55.512;37.764;2022-12-18T07:18:09;99553.50;;;-6.30;91.61
44198;BME280;30157;55.512;37.764;2022-12-18T07:20:34;99571.09;;;-6.32;90.73
44198;BME280;30157;55.512;37.764;2022-12-18T07:23:05;99542.50;;;-6.61;90.09
44198;BME280;30157;55.512;37.764;2022-12-18T07:25:37;99605.88;;;-6.13;91.21
44198;BME280;30157;55.512;37.764;2022-12-18T07:28:03;99622.19;;;-6.08;89.91
44198;BME280;30157;55.512;37.764;2022-12-18T07:30:29;99615.22;;;-6.12;90.40
44198;BME280;30157;55.512;37.764;2022-12-18T07:32:58;99583.66;;;-6.33;90.37
44198;BME280;30157;55.512;37.764;2022-12-18T07:35:23;99636.94;;;-6.00;90.51
44198;BME280;30157;55.512;37.764;2022-12-18T07:37:49;99648.00;;;-5.98;91.06
44198;BME280;30157;55.512;37.764;2022-12-18T07:40:15;99588.59;;;-6.35;89.91
44198;BME280;30157;55.512;37.764;2022-12-18T07:42:41;99634.91;;;-6.06;89.42
44198;BME280;30157;55.512;37.764;2022-12-18T07:45:07;99637.81;;;-6.00;89.76
44198;BME280;30157;55.512;37.764;2022-12-18T07:47:35;99588.38;;;-6.25;90.05
44198;BME280;30157;55.512;37.764;2022-12-18T07:50:05;99652.50;;;-5.93;90.15
44198;BME280;30157;55.512;37.764;2022-12-18T07:52:31;99606.41;;;-6.18;90.02
44198;BME280;30157;55.512;37.764;2022-12-18T07:54:57;99668.91;;;-5.86;89.24
44198;BME280;30157;55.512;37.764;2022-12-18T07:57:22;99603.63;;;-6.23;90.29
44198;BME280;30157;55.512;37.764;2022-12-18T07:59:48;99620.09;;;-6.15;89.64
44198;BME280;30157;55.512;37.764;2022-12-18T08:02:14;99574.66;;;-6.43;89.52
44198;BME280;30157;55.512;37.764;2022-12-18T08:04:42;99678.59;;;-5.79;89.36
44198;BME280;30157;55.512;37.764;2022-12-18T08:07:08;99665.69;;;-5.83;89.61
44198;BME280;30157;55.512;37.764;2022-12-18T08:09:36;99669.09;;;-5.83;89.17
44198;BME280;30157;55.512;37.764;2022-12-18T08:12:02;99630.75;;;-6.05;89.25
44198;BME280;30157;55.512;37.764;2022-12-18T08:14:33;99698.31;;;-5.73;89.24
44198;BME280;30157;55.512;37.764;2022-12-18T08:16:59;99700.53;;;-5.78;88.82
44198;BME280;30157;55.512;37.764;2022-12-18T08:19:24;99646.31;;;-6.13;89.14
44198;BME280;30157;55.512;37.764;2022-12-18T08:21:50;99712.34;;;-5.78;88.92
44198;BME280;30157;55.512;37.764;2022-12-18T08:24:16;99652.16;;;-6.14;88.48
44198;BME280;30157;55.512;37.764;2022-12-18T08:26:41;99687.13;;;-5.92;89.02
44198;BME280;30157;55.512;37.764;2022-12-18T08:29:08;99664.00;;;-6.13;88.29
44198;BME280;30157;55.512;37.764;2022-12-18T08:31:34;99708.81;;;-5.80;88.44
44198;BME280;30157;55.512;37.764;2022-12-18T08:34:02;99727.50;;;-5.78;88.90
44198;BME280;30157;55.512;37.764;2022-12-18T08:36:28;99725.84;;;-5.78;88.63
44198;BME280;30157;55.512;37.764;2022-12-18T08:38:54;99702.19;;;-5.93;87.09
44198;BME280;30157;55.512;37.764;2022-12-18T08:41:20;99725.50;;;-5.84;87.30
44198;BME280;30157;55.512;37.764;2022-12-18T08:43:46;99716.25;;;-5.83;88.12
44198;BME280;30157;55.512;37.764;2022-12-18T08:46:36;99721.97;;;-5.86;87.15
44198;BME280;30157;55.512;37.764;2022-12-18T08:49:03;99678.03;;;-6.18;87.28
44198;BME280;30157;55.512;37.764;2022-12-18T08:51:29;99739.88;;;-5.83;87.28
44198;BME280;30157;55.512;37.764;2022-12-18T08:53:55;99748.41;;;-5.81;88.15
44198;BME280;30157;55.512;37.764;2022-12-18T08:56:21;99737.94;;;-5.87;88.08
44198;BME280;30157;55.512;37.764;2022-12-18T08:58:47;99730.34;;;-5.87;88.31
44198;BME280;30157;55.512;37.764;2022-12-18T09:01:13;99756.47;;;-5.73;88.31
44198;BME280;30157;55.512;37.764;2022-12-18T09:03:41;99749.56;;;-5.76;88.64
44198;BME280;30157;55.512;37.764;2022-12-18T09:06:07;99724.50;;;-5.86;87.91
44198;BME280;30157;55.512;37.764;2022-12-18T09:08:36;99764.69;;;-5.62;87.28
44198;BME280;30157;55.512;37.764;2022-12-18T09:11:13;99774.19;;;-5.58;87.45
44198;BME280;30157;55.512;37.764;2022-12-18T09:13:39;99762.56;;;-5.69;86.87
44198;BME280;30157;55.512;37.764;2022-12-18T09:16:07;99769.66;;;-5.64;87.30
44198;BME280;30157;55.512;37.764;2022-12-18T09:18:36;99782.38;;;-5.62;87.57
44198;BME280;30157;55.512;37.764;2022-12-18T09:21:13;99779.13;;;-5.75;86.90
44198;BME280;30157;55.512;37.764;2022-12-18T09:23:39;99741.44;;;-6.00;87.48
44198;BME280;30157;55.512;37.764;2022-12-18T09:26:05;99787.75;;;-5.71;87.73
44198;BME280;30157;55.512;37.764;2022-12-18T09:28:31;99712.34;;;-6.21;87.02
44198;BME280;30157;55.512;37.764;2022-12-18T09:30:57;99756.13;;;-5.93;87.78
44198;BME280;30157;55.512;37.764;2022-12-18T09:33:22;99777.00;;;-5.82;87.47
44198;BME280;30157;55.512;37.764;2022-12-18T09:35:48;99792.13;;;-5.68;88.04
44198;BME280;30157;55.512;37.764;2022-12-18T09:38:17;99821.09;;;-5.63;87.80
44198;BME280;30157;55.512;37.764;2022-12-18T09:40:51;99812.34;;;-5.68;88.22
44198;BME280;30157;55.512;37.764;2022-12-18T09:43:22;99826.53;;;-5.57;87.78
44198;BME280;30157;55.512;37.764;2022-12-18T09:46:17;99814.66;;;-5.58;87.59
44198;BME280;30157;55.512;37.764;2022-12-18T09:48:47;99765.66;;;-5.88;87.22
44198;BME280;30157;55.512;37.764;2022-12-18T09:51:18;99807.72;;;-5.76;87.18
44198;BME280;30157;55.512;37.764;2022-12-18T09:53:50;99785.59;;;-5.93;88.21
44198;BME280;30157;55.512;37.764;2022-12-18T09:56:19;99772.88;;;-5.95;88.21
44198;BME280;30157;55.512;37.764;2022-12-18T09:58:58;99791.31;;;-5.82;88.61
44198;BME280;30157;55.512;37.764;2022-12-18T10:01:24;99775.41;;;-5.95;88.64
44198;BME280;30157;55.512;37.764;2022-12-18T10:03:51;99833.91;;;-5.60;88.62
44198;BME280;30157;55.512;37.764;2022-12-18T10:09:01;99846.94;;;-5.54;88.89
44198;BME280;30157;55.512;37.764;2022-12-18T10:19:49;99843.44;;;-5.56;89.34
44198;BME280;30157;55.512;37.764;2022-12-18T10:22:45;99834.97;;;-5.57;89.35
44198;BME280;30157;55.512;37.764;2022-12-18T10:25:28;99835.59;;;-5.61;89.80
44198;BME280;30157;55.512;37.764;2022-12-18T10:27:58;99831.28;;;-5.62;89.79
44198;BME280;30157;55.512;37.764;2022-12-18T10:30:27;99848.00;;;-5.50;90.10
44198;BME280;30157;55.512;37.764;2022-12-18T10:32:53;99838.38;;;-5.56;89.80
44198;BME280;30157;55.512;37.764;2022-12-18T10:35:24;99830.25;;;-5.65;89.78
44198;BME280;30157;55.512;37.764;2022-12-18T10:38:04;99851.63;;;-5.60;89.84
44198;BME280;30157;55.512;37.764;2022-12-18T10:48:30;99843.31;;;-5.86;90.71
44198;BME280;30157;55.512;37.764;2022-12-18T10:50:56;99911.84;;;-5.54;91.26
44198;BME280;30157;55.512;37.764;2022-12-18T10:53:25;99914.25;;;-5.56;91.33
44198;BME280;30157;55.512;37.764;2022-12-18T10:55:53;99920.28;;;-5.54;91.24
44198;BME280;30157;55.512;37.764;2022-12-18T10:58:33;99813.59;;;-6.18;91.25
44198;BME280;30157;55.512;37.764;2022-12-18T11:01:06;99887.88;;;-5.75;90.84
44198;BME280;30157;55.512;37.764;2022-12-18T11:03:47;99904.47;;;-5.65;91.75
44198;BME280;30157;55.512;37.764;2022-12-18T11:06:24;99931.47;;;-5.50;91.85
44198;BME280;30157;55.512;37.764;2022-12-18T11:09:01;99884.53;;;-5.74;91.71
44198;BME280;30157;55.512;37.764;2022-12-18T11:11:32;99925.25;;;-5.55;91.05
44198;BME280;30157;55.512;37.764;2022-12-18T11:14:26;99921.38;;;-5.64;91.15
44198;BME280;30157;55.512;37.764;2022-12-18T11:16:54;99923.63;;;-5.68;91.57
44198;BME280;30157;55.512;37.764;2022-12-18T11:19:31;99872.31;;;-5.94;91.87
44198;BME280;30157;55.512;37.764;2022-12-18T11:22:00;99889.53;;;-5.88;91.77
44198;BME280;30157;55.512;37.764;2022-12-18T11:24:40;99904.00;;;-5.86;92.12
44198;BME280;30157;55.512;37.764;2022-12-18T11:27:18;99901.97;;;-5.92;91.96
44198;BME280;30157;55.512;37.764;2022-12-18T11:29:44;99902.97;;;-5.89;91.72
44198;BME280;30157;55.512;37.764;2022-12-18T11:32:38;99944.63;;;-5.69;91.72
44198;BME280;30157;55.512;37.764;2022-12-18T11:35:49;99955.44;;;-5.72;90.95
44198;BME280;30157;55.512;37.764;2022-12-18T11:38:25;99943.28;;;-5.78;91.37
44198;BME280;30157;55.512;37.764;2022-12-18T11:40:59;99893.28;;;-6.10;91.50
44198;BME280;30157;55.512;37.764;2022-12-18T11:46:13;99958.44;;;-5.78;91.03
44198;BME280;30157;55.512;37.764;2022-12-18T11:51:51;99968.28;;;-5.82;91.17
44198;BME280;30157;55.512;37.764;2022-12-18T11:54:21;99907.16;;;-6.17;91.32
44198;BME280;30157;55.512;37.764;2022-12-18T11:57:24;99996.69;;;-5.73;91.48
44198;BME280;30157;55.512;37.764;2022-12-18T12:00:02;99999.22;;;-5.73;91.33
44198;BME280;30157;55.512;37.764;2022-12-18T12:03:06;100009.00;;;-5.78;90.89
44198;BME280;30157;55.512;37.764;2022-12-18T12:27:22;100034.31;;;-5.78;92.61
44198;BME280;30157;55.512;37.764;2022-12-18T12:30:02;100000.31;;;-6.10;92.41
44198;BME280;30157;55.512;37.764;2022-12-18T12:35:56;100001.06;;;-6.11;92.12
44198;BME280;30157;55.512;37.764;2022-12-18T12:38:48;100063.69;;;-5.80;92.18
44198;BME280;30157;55.512;37.764;2022-12-18T12:41:14;100059.50;;;-5.79;92.43
44198;BME280;30157;55.512;37.764;2022-12-18T12:44:04;100055.91;;;-5.83;92.52
44198;BME280;30157;55.512;37.764;2022-12-18T12:46:35;100039.94;;;-5.95;92.03
44198;BME280;30157;55.512;37.764;2022-12-18T12:49:11;100062.50;;;-5.85;91.95
44198;BME280;30157;55.512;37.764;2022-12-18T12:51:40;100076.00;;;-5.84;91.94
44198;BME280;30157;55.512;37.764;2022-12-18T12:54:15;100023.72;;;-6.12;92.53
44198;BME280;30157;55.512;37.764;2022-12-18T12:57:00;100051.53;;;-5.99;92.25
44198;BME280;30157;55.512;37.764;2022-12-18T13:05:48;100056.88;;;-6.08;92.57
44198;BME280;30157;55.512;37.764;2022-12-18T13:08:29;100105.59;;;-5.83;92.14
44198;BME280;30157;55.512;37.764;2022-12-18T13:10:59;100110.25;;;-5.89;92.40
44198;BME280;30157;55.512;37.764;2022-12-18T13:13:53;100114.94;;;-5.82;92.49
44198;BME280;30157;55.512;37.764;2022-12-18T13:16:24;100023.25;;;-6.45;92.40
44198;BME280;30157;55.512;37.764;2022-12-18T13:18:57;100092.25;;;-6.08;92.44
44198;BME280;30157;55.512;37.764;2022-12-18T13:21:33;100135.25;;;-5.81;93.09
44198;BME280;30157;55.512;37.764;2022-12-18T13:24:27;100094.09;;;-6.05;92.60
44198;BME280;30157;55.512;37.764;2022-12-18T13:26:55;100145.06;;;-5.85;92.43
44198;BME280;30157;55.512;37.764;2022-12-18T13:29:44;100007.91;;;-6.73;92.65
44198;BME280;30157;55.512;37.764;2022-12-18T13:32:24;100160.13;;;-5.87;92.79
44198;BME280;30157;55.512;37.764;2022-12-18T13:37:54;100143.00;;;-6.04;92.86
44198;BME280;30157;55.512;37.764;2022-12-18T13:48:32;100170.41;;;-5.97;92.62
44198;BME280;30157;55.512;37.764;2022-12-18T13:51:39;100190.59;;;-5.85;92.39
44198;BME280;30157;55.512;37.764;2022-12-18T13:56:47;100163.78;;;-6.09;92.37
44198;BME280;30157;55.512;37.764;2022-12-18T13:59:22;100208.56;;;-5.81;92.79
44198;BME280;30157;55.512;37.764;2022-12-18T14:01:52;100215.19;;;-5.83;92.34
44198;BME280;30157;55.512;37.764;2022-12-18T14:04:27;100215.19;;;-5.83;92.42
44198;BME280;30157;55.512;37.764;2022-12-18T14:06:57;100226.94;;;-5.83;92.22
44198;BME280;30157;55.512;37.764;2022-12-18T14:09:30;100209.63;;;-5.91;92.44
44198;BME280;30157;55.512;37.764;2022-12-18T14:11:57;100233.34;;;-5.88;92.41
44198;BME280;30157;55.512;37.764;2022-12-18T14:14:47;100213.31;;;-5.99;92.27
44198;BME280;30157;55.512;37.764;2022-12-18T14:17:16;100162.13;;;-6.33;92.45
44198;BME280;30157;55.512;37.764;2022-12-18T14:19:48;100186.59;;;-6.20;92.33
44198;BME280;30157;55.512;37.764;2022-12-18T14:22:23;100234.00;;;-5.91;92.54
44198;BME280;30157;55.512;37.764;2022-12-18T14:25:18;100246.06;;;-5.87;92.29
44198;BME280;30157;55.512;37.764;2022-12-18T14:28:31;100251.38;;;-5.84;92.56
44198;BME280;30157;55.512;37.764;2022-12-18T14:30:42;100251.84;;;-5.89;92.14
44198;BME280;30157;55.512;37.764;2022-12-18T14:35:35;100210.19;;;-6.20;92.65
44198;BME280;30157;55.512;37.764;2022-12-18T14:38:26;100257.16;;;-5.98;93.03
44198;BME280;30157;55.512;37.764;2022-12-18T14:41:03;100281.47;;;-5.87;92.73
44198;BME280;30157;55.512;37.764;2022-12-18T14:43:36;100282.94;;;-5.91;93.25